Time;durP1;ratioP1;P1;durP2;ratioP2;P2;SDS_P1;SDS_P2;PMS_P1;PMS_P2;Temp;Humidity;BMP_temperature;BMP_pressure;BME280_temperature;BME280_humidity;BME280_pressure;Samples;Min_cycle;Max_cycle;Signal;HPM_P1;HPM_P2
2022/02/03 00:00:23;;;;;;;10.68;5.00;;;;;;;;;;4963377;28;20472;-78
2022/02/03 00:03:01;;;;;;;12.63;5.30;;;;;;;;;;4959735;29;20023;-77
2022/02/03 00:24:40;;;;;;;11.38;4.72;;;;;;;;;;4958658;28;20070;-77
2022/02/03 00:27:11;;;;;;;9.07;4.97;;;;;;;;;;4966294;29;20019;-76
2022/02/03 00:32:39;;;;;;;10.60;5.13;;;;;;;;;;4958408;29;20023;-77
2022/02/03 00:49:01;;;;;;;8.75;4.20;;;;;;;;;;4905551;29;20120;-78
2022/02/03 00:51:28;;;;;;;11.20;4.80;;;;;;;;;;4884289;29;20477;-75
2022/02/03 00:53:58;;;;;;;8.75;3.60;;;;;;;;;;4900695;29;20037;-76
2022/02/03 00:56:33;;;;;;;7.80;3.80;;;;;;;;;;4901626;29;20483;-78
2022/02/03 00:59:12;;;;;;;10.20;3.88;;;;;;;;;;4904505;29;20172;-78
2022/02/03 01:01:40;;;;;;;8.68;4.07;;;;;;;;;;4881405;29;20675;-78
2022/02/03 01:04:08;;;;;;;12.50;4.43;;;;;;;;;;4881783;29;20045;-78
2022/02/03 01:06:53;;;;;;;16.85;5.88;;;;;;;;;;4895068;29;20499;-78
2022/02/03 01:09:23;;;;;;;10.00;4.68;;;;;;;;;;4900405;29;20037;-78
2022/02/03 01:12:23;;;;;;;13.43;5.47;;;;;;;;;;4902328;29;20041;-75
2022/02/03 01:14:53;;;;;;;16.40;5.43;;;;;;;;;;4903213;29;20406;-77
2022/02/03 01:17:34;;;;;;;12.93;4.05;;;;;;;;;;4913885;29;20114;-77
2022/02/03 01:34:36;;;;;;;8.82;3.58;;;;;;;;;;4904223;29;20438;-77
2022/02/03 01:45:23;;;;;;;16.77;6.30;;;;;;;;;;4905174;29;20108;-78
2022/02/03 01:53:22;;;;;;;11.38;5.63;;;;;;;;;;4897579;29;20155;-77
2022/02/03 01:55:56;;;;;;;15.50;5.78;;;;;;;;;;4900291;29;20073;-77
2022/02/03 01:58:29;;;;;;;11.60;5.82;;;;;;;;;;4948055;29;20083;-78
2022/02/03 02:00:57;;;;;;;12.00;6.00;;;;;;;;;;4942931;29;20056;-75
2022/02/03 02:03:32;;;;;;;11.75;4.50;;;;;;;;;;4943835;29;20102;-78
2022/02/03 02:05:58;;;;;;;11.38;4.05;;;;;;;;;;4960052;28;20051;-78
2022/02/03 02:08:24;;;;;;;13.18;4.95;;;;;;;;;;4960251;28;20027;-75
2022/02/03 02:13:53;;;;;;;12.27;4.50;;;;;;;;;;4966288;29;20074;-78
2022/02/03 02:38:15;;;;;;;11.40;4.18;;;;;;;;;;4946511;29;20460;-76
2022/02/03 02:41:09;;;;;;;9.20;4.03;;;;;;;;;;4961177;28;20028;-76
2022/02/03 02:43:29;;;;;;;12.75;4.40;;;;;;;;;;4964165;29;20496;-78
2022/02/03 02:46:09;;;;;;;10.73;3.92;;;;;;;;;;4960872;28;20038;-74
2022/02/03 02:48:58;;;;;;;13.00;4.72;;;;;;;;;;4944939;29;20063;-78
2022/02/03 02:51:32;;;;;;;11.45;4.53;;;;;;;;;;4925573;29;20519;-75
2022/02/03 02:56:52;;;;;;;10.43;3.88;;;;;;;;;;4949392;29;20023;-78
2022/02/03 03:00:02;;;;;;;11.73;4.68;;;;;;;;;;4934987;29;20489;-78
2022/02/03 03:31:20;;;;;;;36.20;15.48;;;;;;;;;;4809591;29;20042;-77
2022/02/03 03:33:59;;;;;;;23.15;10.05;;;;;;;;;;4816563;29;20181;-75
2022/02/03 03:36:33;;;;;;;12.20;5.93;;;;;;;;;;4817023;29;20413;-77
2022/02/03 03:39:00;;;;;;;15.43;5.72;;;;;;;;;;4843523;29;20060;-78
2022/02/03 03:41:28;;;;;;;9.50;5.53;;;;;;;;;;4903093;29;20523;-78
2022/02/03 03:44:07;;;;;;;12.85;4.90;;;;;;;;;;4886979;29;20044;-78
2022/02/03 03:46:35;;;;;;;11.80;4.90;;;;;;;;;;4902146;29;20039;-78
2022/02/03 03:49:17;;;;;;;16.40;6.10;;;;;;;;;;4887602;29;20037;-78
2022/02/03 03:51:58;;;;;;;14.32;4.88;;;;;;;;;;4901288;29;20033;-77
2022/02/03 03:54:36;;;;;;;15.07;6.80;;;;;;;;;;4901520;29;20052;-78
2022/02/03 03:57:30;;;;;;;21.33;9.07;;;;;;;;;;4890387;29;20033;-78
2022/02/03 04:00:47;;;;;;;14.43;5.50;;;;;;;;;;4900674;29;20051;-78
2022/02/03 04:29:16;;;;;;;11.30;3.95;;;;;;;;;;4959782;29;20041;-77
2022/02/03 04:43:31;;;;;;;14.95;6.72;;;;;;;;;;4902570;29;20043;-78
2022/02/03 04:46:26;;;;;;;15.90;7.10;;;;;;;;;;4903541;29;20040;-78
2022/02/03 05:01:00;;;;;;;14.73;5.13;;;;;;;;;;4837350;29;20074;-77
2022/02/03 05:03:49;;;;;;;16.67;5.38;;;;;;;;;;4835232;29;20421;-75
2022/02/03 05:08:59;;;;;;;22.73;8.48;;;;;;;;;;4826601;29;20140;-77
2022/02/03 05:17:09;;;;;;;12.93;4.63;;;;;;;;;;4846052;29;20057;-77
2022/02/03 05:45:59;;;;;;;;;;;;;;;;;;4920200;29;20509;-75
2022/02/03 06:02:06;;;;;;;13.43;6.07;;;;;;;;;;4898333;29;20043;-74
2022/02/03 06:04:50;;;;;;;17.23;6.22;;;;;;;;;;4898934;29;20051;-75
2022/02/03 06:29:42;;;;;;;12.43;5.78;;;;;;;;;;4825282;29;20144;-77
2022/02/03 06:32:17;;;;;;;14.15;6.53;;;;;;;;;;4822336;29;20103;-74
2022/02/03 06:34:47;;;;;;;18.38;7.18;;;;;;;;;;4830813;29;20076;-75
2022/02/03 06:37:14;;;;;;;16.45;4.72;;;;;;;;;;4845383;29;20404;-75
2022/02/03 06:39:41;;;;;;;10.98;4.60;;;;;;;;;;4828336;29;20485;-76
2022/02/03 06:42:10;;;;;;;11.10;5.75;;;;;;;;;;4843909;29;20037;-75
2022/02/03 06:47:24;;;;;;;12.60;5.13;;;;;;;;;;4861278;29;20592;-78
2022/02/03 06:49:59;;;;;;;14.02;5.03;;;;;;;;;;4830044;29;20057;-77
2022/02/03 06:52:58;;;;;;;11.77;5.28;;;;;;;;;;4891969;29;20401;-75
2022/02/03 07:00:54;;;;;;;12.50;5.90;;;;;;;;;;4862571;29;20053;-79
2022/02/03 07:03:28;;;;;;;11.02;4.85;;;;;;;;;;4875857;29;20085;-76
2022/02/03 07:05:54;;;;;;;14.38;5.75;;;;;;;;;;4876710;29;20092;-75
2022/02/03 07:08:22;;;;;;;14.27;5.88;;;;;;;;;;4897578;29;20044;-76
2022/02/03 07:10:50;;;;;;;39.17;20.05;;;;;;;;;;4891964;29;20032;-79
2022/02/03 07:13:16;;;;;;;44.88;29.02;;;;;;;;;;4908510;29;20032;-78
2022/02/03 07:15:43;;;;;;;19.67;11.75;;;;;;;;;;4901272;29;20084;-76
2022/02/03 07:18:10;;;;;;;16.63;10.27;;;;;;;;;;4899486;29;20037;-75
2022/02/03 07:20:36;;;;;;;18.02;9.18;;;;;;;;;;4905623;29;20020;-77
2022/02/03 07:23:02;;;;;;;17.77;7.95;;;;;;;;;;4905032;29;20043;-76
2022/02/03 07:25:33;;;;;;;17.45;7.63;;;;;;;;;;4897352;29;20029;-76
2022/02/03 07:28:01;;;;;;;11.18;6.47;;;;;;;;;;4886832;29;20041;-77
2022/02/03 07:30:29;;;;;;;14.55;6.25;;;;;;;;;;4896615;29;20025;-76
2022/02/03 07:33:02;;;;;;;16.23;6.50;;;;;;;;;;4876247;29;20032;-76
2022/02/03 07:35:33;;;;;;;14.15;6.18;;;;;;;;;;4935628;29;20105;-76
2022/02/03 07:38:22;;;;;;;13.40;5.70;;;;;;;;;;4960295;29;20038;-75
2022/02/03 07:41:00;;;;;;;13.60;6.32;;;;;;;;;;4954460;28;20039;-76
2022/02/03 07:43:28;;;;;;;13.27;6.50;;;;;;;;;;4967164;28;20552;-78
2022/02/03 07:45:58;;;;;;;11.43;5.72;;;;;;;;;;4941057;29;20039;-81
2022/02/03 07:48:25;;;;;;;11.48;6.30;;;;;;;;;;4932071;29;20046;-77
2022/02/03 07:50:52;;;;;;;13.95;6.38;;;;;;;;;;4954001;29;20042;-79
2022/02/03 07:53:18;;;;;;;11.57;6.18;;;;;;;;;;4963231;28;20381;-82
2022/02/03 07:55:47;;;;;;;11.68;6.70;;;;;;;;;;4952967;28;20039;-78
2022/02/03 07:58:13;;;;;;;12.80;6.68;;;;;;;;;;4928734;29;20054;-76
2022/02/03 08:00:43;;;;;;;14.77;6.15;;;;;;;;;;4961408;29;20035;-76
2022/02/03 08:03:12;;;;;;;16.70;7.28;;;;;;;;;;4948068;29;20020;-75
2022/02/03 08:05:42;;;;;;;18.17;8.48;;;;;;;;;;4947461;29;20040;-76
2022/02/03 08:10:48;;;;;;;17.98;8.63;;;;;;;;;;4958279;29;20114;-75
2022/02/03 08:13:29;;;;;;;19.60;8.32;;;;;;;;;;4959423;28;20043;-75
2022/02/03 08:16:12;;;;;;;17.75;8.77;;;;;;;;;;4925525;29;20056;-75
2022/02/03 08:18:51;;;;;;;17.58;7.22;;;;;;;;;;4905377;29;20042;-75
2022/02/03 08:21:19;;;;;;;15.52;7.93;;;;;;;;;;4946567;29;20035;-76
2022/02/03 08:31:39;;;;;;;17.60;8.07;;;;;;;;;;4933471;29;20134;-79
2022/02/03 08:34:05;;;;;;;14.23;6.63;;;;;;;;;;4928550;29;20110;-73
2022/02/03 08:36:35;;;;;;;13.73;7.00;;;;;;;;;;4934267;29;20044;-77
2022/02/03 08:39:06;;;;;;;16.30;6.82;;;;;;;;;;4947917;29;20138;-73
2022/02/03 08:41:32;;;;;;;13.38;5.85;;;;;;;;;;4939464;29;20039;-76
2022/02/03 08:43:58;;;;;;;16.38;8.90;;;;;;;;;;4951347;29;20036;-75
2022/02/03 08:46:26;;;;;;;18.15;8.00;;;;;;;;;;4948684;29;20035;-73
2022/02/03 08:48:53;;;;;;;18.30;9.25;;;;;;;;;;4930542;29;20022;-75
2022/02/03 08:51:19;;;;;;;13.68;5.30;;;;;;;;;;4957781;28;20094;-79
2022/02/03 08:53:50;;;;;;;16.33;6.93;;;;;;;;;;4955635;29;20043;-77
2022/02/03 09:35:50;;;;;;;35.42;11.95;;;;;;;;;;4979852;28;20042;-75
2022/02/03 10:00:23;;;;;;;11.38;4.05;;;;;;;;;;4952045;29;20523;-76
2022/02/03 10:02:57;;;;;;;9.38;4.00;;;;;;;;;;4940904;29;20032;-75
2022/02/03 10:06:06;;;;;;;11.95;5.18;;;;;;;;;;4960641;28;20031;-76
2022/02/03 10:08:34;;;;;;;12.25;4.32;;;;;;;;;;4958636;28;20066;-76
2022/02/03 10:11:18;;;;;;;16.08;3.95;;;;;;;;;;4949677;28;20525;-76
2022/02/03 10:13:46;;;;;;;12.35;3.70;;;;;;;;;;5014453;28;20030;-77
2022/02/03 10:16:14;;;;;;;11.07;3.45;;;;;;;;;;5018966;28;20041;-76
2022/02/03 10:18:42;;;;;;;9.57;3.67;;;;;;;;;;5038030;28;20061;-77
2022/02/03 10:21:12;;;;;;;15.55;3.92;;;;;;;;;;5032552;28;20061;-76
2022/02/03 10:23:59;;;;;;;14.35;3.58;;;;;;;;;;5022185;28;20042;-76
2022/02/03 10:26:44;;;;;;;8.35;3.65;;;;;;;;;;5022661;28;20056;-76
2022/02/03 10:29:35;;;;;;;10.13;3.65;;;;;;;;;;5019363;28;20033;-77
2022/02/03 10:32:10;;;;;;;11.20;3.95;;;;;;;;;;5014333;28;20496;-78
2022/02/03 10:34:43;;;;;;;9.75;4.40;;;;;;;;;;5011247;28;20042;-76
2022/02/03 10:37:24;;;;;;;13.13;6.50;;;;;;;;;;5007596;28;20030;-74
2022/02/03 10:51:04;;;;;;;8.55;3.58;;;;;;;;;;4945648;29;20039;-77
2022/02/03 10:54:08;;;;;;;9.13;3.65;;;;;;;;;;4917081;29;20202;-77
2022/02/03 10:57:05;;;;;;;8.10;3.30;;;;;;;;;;4908563;29;20060;-78
2022/02/03 11:02:12;;;;;;;16.02;4.45;;;;;;;;;;4910009;29;20547;-76
2022/02/03 11:05:41;;;;;;;11.45;3.53;;;;;;;;;;4923077;29;20490;-77
2022/02/03 11:08:18;;;;;;;7.85;3.40;;;;;;;;;;4835183;29;20023;-76
2022/02/03 11:10:50;;;;;;;10.43;4.10;;;;;;;;;;4838573;29;20149;-75
2022/02/03 11:13:23;;;;;;;9.57;3.75;;;;;;;;;;4825914;29;20043;-77
2022/02/03 11:15:53;;;;;;;9.50;3.40;;;;;;;;;;4841291;29;20054;-76
2022/02/03 11:18:21;;;;;;;10.05;3.35;;;;;;;;;;4833660;29;20043;-77
2022/02/03 11:20:49;;;;;;;7.82;2.97;;;;;;;;;;4835862;29;20065;-75
2022/02/03 11:23:45;;;;;;;10.38;3.38;;;;;;;;;;4888587;29;20556;-76
2022/02/03 11:26:27;;;;;;;9.38;3.80;;;;;;;;;;4924165;29;20047;-75
2022/02/03 11:29:22;;;;;;;8.48;3.28;;;;;;;;;;4943272;29;20042;-77
2022/02/03 11:35:59;;;;;;;11.95;4.35;;;;;;;;;;4897520;29;20045;-75
2022/02/03 11:38:34;;;;;;;12.15;4.68;;;;;;;;;;4876321;29;20081;-74
2022/02/03 11:49:56;;;;;;;;;;;;;;;;;;4813982;29;20071;-73
2022/02/03 12:01:00;;;;;;;9.57;4.57;;;;;;;;;;4857820;29;20441;-75
2022/02/03 12:18:30;;;;;;;38.17;14.30;;;;;;;;;;4821982;29;20041;-76
2022/02/03 12:21:09;;;;;;;9.63;4.15;;;;;;;;;;4893011;29;20036;-76
2022/02/03 12:26:19;;;;;;;9.63;3.10;;;;;;;;;;4979653;28;20031;-77
2022/02/03 12:29:24;;;;;;;6.50;3.40;;;;;;;;;;4980957;28;20619;-77
2022/02/03 12:32:11;;;;;;;14.10;7.05;;;;;;;;;;4960634;28;20041;-77
2022/02/03 12:48:54;;;;;;;9.68;3.42;;;;;;;;;;5784701;23;20147;-79
2022/02/03 12:52:08;;;;;;;10.85;3.55;;;;;;;;;;5042954;23;20500;-79
2022/02/03 12:58:00;;;;;;;7.47;3.45;;;;;;;;;;5067357;23;20059;-79
2022/02/03 13:00:56;;;;;;;8.00;3.80;;;;;;;;;;4978395;28;20022;-79
2022/02/03 13:03:45;;;;;;;7.95;3.40;;;;;;;;;;4977255;28;20095;-79
2022/02/03 13:06:19;;;;;;;10.35;3.97;;;;;;;;;;4985950;28;20082;-76
2022/02/03 13:08:56;;;;;;;7.00;3.50;;;;;;;;;;4970424;28;20035;-77
2022/02/03 13:11:35;;;;;;;17.38;4.20;;;;;;;;;;4983657;28;20034;-77
2022/02/03 13:14:46;;;;;;;7.57;3.38;;;;;;;;;;4990863;28;20034;-77
2022/02/03 13:17:21;;;;;;;9.88;3.80;;;;;;;;;;4933744;28;20052;-79
2022/02/03 13:20:05;;;;;;;8.23;4.70;;;;;;;;;;4931419;29;20044;-75
2022/02/03 13:22:57;;;;;;;14.27;8.95;;;;;;;;;;4935512;29;20059;-75
2022/02/03 13:28:27;;;;;;;7.22;3.40;;;;;;;;;;4932547;29;20080;-75
2022/02/03 13:31:20;;;;;;;8.73;3.63;;;;;;;;;;4914255;29;20032;-75
2022/02/03 13:36:59;;;;;;;8.50;3.45;;;;;;;;;;4853204;29;20038;-78
2022/02/03 13:39:37;;;;;;;8.65;3.40;;;;;;;;;;4850690;29;20025;-78
2022/02/03 13:42:12;;;;;;;6.35;3.80;;;;;;;;;;4856156;29;20061;-78
2022/02/03 14:33:06;;;;;;;9.07;3.63;;;;;;;;;;4704388;23;20113;-77
2022/02/03 14:41:08;;;;;;;8.32;3.70;;;;;;;;;;4945828;26;20058;-76
2022/02/03 14:43:39;;;;;;;7.72;3.50;;;;;;;;;;4999197;28;20021;-77
2022/02/03 14:46:15;;;;;;;13.00;5.20;;;;;;;;;;4996966;28;20451;-77
2022/02/03 14:48:43;;;;;;;11.73;4.50;;;;;;;;;;5014907;28;20030;-78
2022/02/03 14:51:12;;;;;;;6.80;4.05;;;;;;;;;;5000354;28;20029;-78
2022/02/03 14:53:53;;;;;;;18.23;4.97;;;;;;;;;;5008475;28;20030;-76
2022/02/03 14:59:08;;;;;;;9.05;3.65;;;;;;;;;;5003716;28;20623;-76
2022/02/03 15:01:38;;;;;;;12.27;4.25;;;;;;;;;;5007660;28;20080;-76
2022/02/03 15:04:08;;;;;;;13.43;4.00;;;;;;;;;;4997536;28;20033;-75
2022/02/03 15:06:52;;;;;;;10.77;4.20;;;;;;;;;;4995774;28;20027;-75
2022/02/03 15:09:33;;;;;;;13.68;4.18;;;;;;;;;;4989850;28;20076;-78
2022/02/03 15:12:22;;;;;;;14.38;4.63;;;;;;;;;;4984049;28;20117;-78
2022/02/03 15:14:50;;;;;;;12.82;4.72;;;;;;;;;;4986779;28;20026;-77
2022/02/03 15:17:24;;;;;;;13.93;4.75;;;;;;;;;;5008799;28;20026;-78
2022/02/03 15:19:52;;;;;;;14.40;5.30;;;;;;;;;;4996651;28;20027;-78
2022/02/03 15:22:33;;;;;;;12.23;4.28;;;;;;;;;;5009734;28;20039;-78
2022/02/03 15:25:02;;;;;;;14.82;5.30;;;;;;;;;;4995378;28;20046;-78
2022/02/03 15:30:12;;;;;;;17.00;4.65;;;;;;;;;;5122131;23;20058;-79
2022/02/03 15:32:51;;;;;;;13.80;4.80;;;;;;;;;;4986252;28;20045;-77
2022/02/03 15:35:26;;;;;;;12.88;4.70;;;;;;;;;;4978024;28;20046;-75
2022/02/03 15:37:53;;;;;;;11.07;4.95;;;;;;;;;;4999527;28;20027;-75
2022/02/03 15:40:23;;;;;;;18.33;7.40;;;;;;;;;;4978159;28;20046;-75
2022/02/03 15:43:01;;;;;;;11.35;4.70;;;;;;;;;;4977221;28;20054;-75
2022/02/03 15:45:33;;;;;;;14.20;5.43;;;;;;;;;;4995665;28;20032;-76
2022/02/03 15:48:04;;;;;;;22.70;5.45;;;;;;;;;;4972848;28;20034;-75
2022/02/03 16:04:06;;;;;;;13.20;4.88;;;;;;;;;;4994161;28;20525;-76
2022/02/03 16:17:46;;;;;;;22.10;10.05;;;;;;;;;;4928828;29;20031;-77
2022/02/03 16:20:26;;;;;;;33.55;15.57;;;;;;;;;;4917562;29;20025;-76
2022/02/03 16:43:22;;;;;;;22.70;8.50;;;;;;;;;;4934510;29;20070;-75
2022/02/03 16:52:03;;;;;;;30.05;14.00;;;;;;;;;;4935502;29;20095;-79
2022/02/03 16:54:43;;;;;;;60.90;30.23;;;;;;;;;;4920363;29;20431;-77
2022/02/03 16:57:17;;;;;;;65.45;29.80;;;;;;;;;;4908751;29;20147;-75
2022/02/03 16:59:58;;;;;;;54.10;26.70;;;;;;;;;;4944614;29;20063;-79
2022/02/03 17:02:24;;;;;;;50.33;25.27;;;;;;;;;;4934993;29;20036;-79
2022/02/03 17:04:57;;;;;;;50.92;25.73;;;;;;;;;;4928467;29;20028;-77
2022/02/03 17:07:24;;;;;;;44.88;20.48;;;;;;;;;;4922314;29;20080;-78
2022/02/03 17:09:52;;;;;;;38.85;19.02;;;;;;;;;;4945264;28;20034;-76
2022/02/03 17:12:18;;;;;;;51.40;25.00;;;;;;;;;;4945737;28;20031;-77
2022/02/03 17:14:45;;;;;;;59.08;29.25;;;;;;;;;;4961753;28;20033;-74
2022/02/03 17:17:12;;;;;;;55.38;28.73;;;;;;;;;;4978135;28;20049;-74
2022/02/03 17:19:39;;;;;;;38.03;19.52;;;;;;;;;;4964410;28;20568;-74
2022/02/03 17:22:06;;;;;;;41.33;23.88;;;;;;;;;;4982309;28;20159;-73
2022/02/03 17:24:35;;;;;;;40.25;21.20;;;;;;;;;;4963987;28;20023;-74
2022/02/03 20:08:10;;;;;;;17.27;6.55;;;;;;;;;;4878764;29;20108;-76
2022/02/03 20:10:31;;;;;;;10.18;5.40;;;;;;;;;;4878726;29;20052;-75
2022/02/03 20:12:57;;;;;;;41.63;17.77;;;;;;;;;;4968348;28;20122;-74
2022/02/03 20:15:25;;;;;;;40.33;22.65;;;;;;;;;;4975354;28;20027;-74
2022/02/03 20:17:51;;;;;;;32.78;17.02;;;;;;;;;;4974999;28;20054;-75
2022/02/03 20:20:17;;;;;;;18.92;10.73;;;;;;;;;;4974969;28;20472;-76
2022/02/03 20:22:44;;;;;;;17.98;8.60;;;;;;;;;;4975549;28;20026;-74
2022/02/03 20:25:11;;;;;;;26.15;10.50;;;;;;;;;;4974521;28;20030;-75
2022/02/03 20:27:37;;;;;;;34.22;11.82;;;;;;;;;;4979836;28;20026;-75
2022/02/03 20:30:04;;;;;;;26.27;10.02;;;;;;;;;;4977069;28;20077;-75
2022/02/03 20:32:31;;;;;;;15.05;7.65;;;;;;;;;;4975031;28;20051;-74
2022/02/03 20:35:06;;;;;;;13.38;6.88;;;;;;;;;;4977089;28;20026;-74
2022/02/03 20:37:32;;;;;;;16.52;8.02;;;;;;;;;;4975732;28;20038;-75
2022/02/03 20:40:01;;;;;;;16.95;8.40;;;;;;;;;;4975509;28;20011;-75
2022/02/03 20:42:27;;;;;;;31.45;13.48;;;;;;;;;;4974471;28;20397;-75
2022/02/03 20:44:53;;;;;;;30.27;15.68;;;;;;;;;;4976836;28;20091;-76
2022/02/03 20:47:19;;;;;;;33.85;15.50;;;;;;;;;;4976647;28;20022;-75
2022/02/03 20:49:48;;;;;;;41.58;14.63;;;;;;;;;;4976360;28;20092;-75
2022/02/03 20:52:18;;;;;;;40.53;13.20;;;;;;;;;;4976066;28;20051;-75
2022/02/03 20:54:44;;;;;;;37.25;15.60;;;;;;;;;;4975568;28;20059;-75
2022/02/03 20:57:10;;;;;;;31.17;15.52;;;;;;;;;;4975041;28;20035;-75
2022/02/03 20:59:56;;;;;;;38.40;20.42;;;;;;;;;;4975965;28;20357;-75
2022/02/03 21:02:32;;;;;;;36.17;20.73;;;;;;;;;;4977009;28;20377;-76
2022/02/03 21:05:06;;;;;;;29.05;15.43;;;;;;;;;;4979457;28;20011;-75
2022/02/03 21:07:33;;;;;;;36.90;15.30;;;;;;;;;;4977797;28;20033;-76
2022/02/03 21:10:01;;;;;;;30.92;12.73;;;;;;;;;;4976950;28;20472;-75
2022/02/03 21:12:29;;;;;;;30.42;13.88;;;;;;;;;;4959951;28;20039;-76
2022/02/03 21:14:56;;;;;;;25.85;11.18;;;;;;;;;;4977262;28;20023;-76
2022/02/03 21:17:24;;;;;;;18.17;8.25;;;;;;;;;;4976094;28;20041;-75
2022/02/03 21:19:50;;;;;;;18.95;8.30;;;;;;;;;;4960607;28;20501;-76
2022/02/03 21:22:16;;;;;;;19.85;8.65;;;;;;;;;;4975112;28;20109;-76
2022/02/03 21:24:42;;;;;;;20.10;8.27;;;;;;;;;;4981155;28;20396;-75
2022/02/03 21:27:15;;;;;;;21.85;9.55;;;;;;;;;;4974456;28;20027;-76
2022/02/03 21:29:42;;;;;;;22.10;8.23;;;;;;;;;;4974711;28;20026;-76
2022/02/03 21:32:10;;;;;;;21.67;8.52;;;;;;;;;;4958125;28;20055;-75
2022/02/03 21:34:37;;;;;;;18.52;7.78;;;;;;;;;;4975439;28;20271;-75
2022/02/03 21:37:03;;;;;;;23.35;9.18;;;;;;;;;;4975294;28;20039;-76
2022/02/03 21:39:29;;;;;;;22.33;7.43;;;;;;;;;;4975049;28;20023;-75
2022/02/03 21:41:55;;;;;;;17.42;6.60;;;;;;;;;;4979806;28;20519;-76
2022/02/03 21:44:27;;;;;;;19.00;6.60;;;;;;;;;;4979432;28;20102;-75
2022/02/03 21:46:54;;;;;;;18.38;5.72;;;;;;;;;;4963491;28;20494;-75
2022/02/03 21:49:23;;;;;;;11.80;6.25;;;;;;;;;;4978764;28;20026;-75
2022/02/03 21:51:51;;;;;;;13.88;7.03;;;;;;;;;;4961778;28;20023;-76
2022/02/03 21:54:17;;;;;;;11.52;6.78;;;;;;;;;;4979531;28;20023;-75
2022/02/03 21:56:44;;;;;;;12.32;6.25;;;;;;;;;;4978804;28;20559;-75
2022/02/03 21:59:11;;;;;;;17.83;6.93;;;;;;;;;;4980241;28;20397;-75
2022/02/03 22:01:40;;;;;;;16.42;7.90;;;;;;;;;;4987692;28;20121;-78
2022/02/03 22:04:09;;;;;;;17.92;7.55;;;;;;;;;;4986069;28;20057;-75
2022/02/03 22:06:35;;;;;;;16.38;7.55;;;;;;;;;;4979335;28;20023;-75
2022/02/03 22:09:01;;;;;;;13.77;7.70;;;;;;;;;;4980590;28;20030;-76
2022/02/03 22:11:27;;;;;;;14.95;7.80;;;;;;;;;;4978939;28;20157;-75
2022/02/03 22:13:53;;;;;;;21.55;9.35;;;;;;;;;;4978806;28;20058;-75
2022/02/03 22:16:23;;;;;;;25.58;9.88;;;;;;;;;;4979241;28;20033;-75
2022/02/03 22:18:50;;;;;;;25.13;9.40;;;;;;;;;;4978467;28;20054;-76
2022/02/03 22:21:40;;;;;;;17.33;8.55;;;;;;;;;;4979129;28;20015;-76
2022/02/03 22:24:24;;;;;;;13.48;8.18;;;;;;;;;;4979651;28;20023;-75
2022/02/03 22:27:17;;;;;;;21.33;8.95;;;;;;;;;;4978130;28;20492;-75
2022/02/03 22:46:14;;;;;;;13.80;7.70;;;;;;;;;;4975839;28;20042;-75
2022/02/03 22:48:42;;;;;;;21.08;9.27;;;;;;;;;;4976975;28;20113;-75
2022/02/03 22:51:08;;;;;;;18.35;7.78;;;;;;;;;;4976244;28;20038;-76
2022/02/03 22:53:40;;;;;;;19.52;7.53;;;;;;;;;;4976423;28;20069;-76
2022/02/03 22:56:08;;;;;;;15.48;8.32;;;;;;;;;;4976569;28;20097;-76
2022/02/03 23:01:16;;;;;;;13.13;7.25;;;;;;;;;;4978037;28;20078;-76
2022/02/03 23:03:43;;;;;;;19.63;8.32;;;;;;;;;;4977135;28;20022;-76
2022/02/03 23:06:09;;;;;;;20.15;8.40;;;;;;;;;;4978733;28;20415;-75
2022/02/03 23:09:04;;;;;;;17.05;7.82;;;;;;;;;;4979541;28;20035;-78
2022/02/03 23:22:10;;;;;;;19.20;7.78;;;;;;;;;;4978987;28;20400;-75
2022/02/03 23:24:37;;;;;;;15.85;7.55;;;;;;;;;;4978857;28;20018;-76
2022/02/03 23:29:42;;;;;;;16.52;7.78;;;;;;;;;;4976947;28;20033;-75
2022/02/03 23:32:11;;;;;;;16.08;7.07;;;;;;;;;;4978864;28;20046;-75
2022/02/03 23:34:40;;;;;;;16.52;7.05;;;;;;;;;;4977154;28;20019;-76
2022/02/03 23:37:06;;;;;;;17.58;8.88;;;;;;;;;;4978758;28;20035;-75
